sensor_id;sensor_type;location;lat;lon;timestamp;P1;durP1;ratioP1;P2;durP2;ratioP2
49948;SDS011;35840;45.982;8.890;2023-03-23T00:01:48;14.13;;;10.63;;
49948;SDS011;35840;45.982;8.890;2023-03-23T00:04:15;26.63;;;11.02;;
49948;SDS011;35840;45.982;8.890;2023-03-23T00:06:42;16.00;;;10.18;;
49948;SDS011;35840;45.982;8.890;2023-03-23T00:09:11;13.73;;;10.45;;
49948;SDS011;35840;45.982;8.890;2023-03-23T00:11:40;15.98;;;10.68;;
49948;SDS011;35840;45.982;8.890;2023-03-23T00:14:07;15.15;;;10.10;;
49948;SDS011;35840;45.982;8.890;2023-03-23T00:16:39;16.80;;;9.95;;
49948;SDS011;35840;45.982;8.890;2023-03-23T00:19:10;14.38;;;11.15;;
49948;SDS011;35840;45.982;8.890;2023-03-23T00:21:41;14.60;;;10.13;;
49948;SDS011;35840;45.982;8.890;2023-03-23T00:24:15;12.68;;;8.50;;
49948;SDS011;35840;45.982;8.890;2023-03-23T00:26:43;11.98;;;9.30;;
49948;SDS011;35840;45.982;8.890;2023-03-23T00:29:12;15.68;;;9.90;;
49948;SDS011;35840;45.982;8.890;2023-03-23T00:31:42;14.95;;;8.95;;
49948;SDS011;35840;45.982;8.890;2023-03-23T00:34:12;12.50;;;8.82;;
49948;SDS011;35840;45.982;8.890;2023-03-23T00:36:46;15.18;;;10.13;;
49948;SDS011;35840;45.982;8.890;2023-03-23T00:39:14;14.23;;;9.27;;
49948;SDS011;35840;45.982;8.890;2023-03-23T00:41:44;17.10;;;10.05;;
49948;SDS011;35840;45.982;8.890;2023-03-23T00:44:12;14.43;;;8.60;;
49948;SDS011;35840;45.982;8.890;2023-03-23T00:46:45;13.20;;;9.45;;
49948;SDS011;35840;45.982;8.890;2023-03-23T00:49:18;14.85;;;8.68;;
49948;SDS011;35840;45.982;8.890;2023-03-23T00:51:45;14.65;;;8.75;;
49948;SDS011;35840;45.982;8.890;2023-03-23T00:54:11;15.32;;;9.57;;
49948;SDS011;35840;45.982;8.890;2023-03-23T00:56:38;12.27;;;9.30;;
49948;SDS011;35840;45.982;8.890;2023-03-23T00:59:05;13.73;;;9.70;;
49948;SDS011;35840;45.982;8.890;2023-03-23T01:01:31;14.23;;;9.07;;
49948;SDS011;35840;45.982;8.890;2023-03-23T01:04:00;13.27;;;9.43;;
49948;SDS011;35840;45.982;8.890;2023-03-23T01:06:33;16.23;;;9.70;;
49948;SDS011;35840;45.982;8.890;2023-03-23T01:09:01;14.80;;;9.70;;
49948;SDS011;35840;45.982;8.890;2023-03-23T01:11:27;13.98;;;9.65;;
49948;SDS011;35840;45.982;8.890;2023-03-23T01:13:53;14.43;;;9.68;;
49948;SDS011;35840;45.982;8.890;2023-03-23T01:16:19;13.80;;;8.93;;
49948;SDS011;35840;45.982;8.890;2023-03-23T01:18:45;14.85;;;9.73;;
49948;SDS011;35840;45.982;8.890;2023-03-23T01:21:12;13.82;;;9.98;;
49948;SDS011;35840;45.982;8.890;2023-03-23T01:23:41;14.30;;;9.88;;
49948;SDS011;35840;45.982;8.890;2023-03-23T01:26:08;17.40;;;10.52;;
49948;SDS011;35840;45.982;8.890;2023-03-23T01:28:36;15.20;;;8.95;;
49948;SDS011;35840;45.982;8.890;2023-03-23T01:31:03;16.83;;;10.00;;
49948;SDS011;35840;45.982;8.890;2023-03-23T01:33:31;14.63;;;10.07;;
49948;SDS011;35840;45.982;8.890;2023-03-23T01:35:58;14.52;;;10.40;;
49948;SDS011;35840;45.982;8.890;2023-03-23T01:38:28;17.23;;;10.65;;
49948;SDS011;35840;45.982;8.890;2023-03-23T01:40:53;12.88;;;9.45;;
49948;SDS011;35840;45.982;8.890;2023-03-23T01:43:19;12.00;;;9.05;;
49948;SDS011;35840;45.982;8.890;2023-03-23T01:45:45;13.48;;;9.70;;
49948;SDS011;35840;45.982;8.890;2023-03-23T01:48:13;11.88;;;9.05;;
49948;SDS011;35840;45.982;8.890;2023-03-23T01:53:30;14.07;;;9.70;;
49948;SDS011;35840;45.982;8.890;2023-03-23T01:56:00;13.27;;;9.00;;
49948;SDS011;35840;45.982;8.890;2023-03-23T01:58:29;17.63;;;10.00;;
49948;SDS011;35840;45.982;8.890;2023-03-23T02:00:58;13.25;;;10.00;;
49948;SDS011;35840;45.982;8.890;2023-03-23T02:03:28;16.30;;;10.05;;
49948;SDS011;35840;45.982;8.890;2023-03-23T02:05:56;11.35;;;8.90;;
49948;SDS011;35840;45.982;8.890;2023-03-23T02:08:49;16.30;;;10.00;;
49948;SDS011;35840;45.982;8.890;2023-03-23T02:11:18;13.85;;;9.63;;
49948;SDS011;35840;45.982;8.890;2023-03-23T02:13:46;11.80;;;8.90;;
49948;SDS011;35840;45.982;8.890;2023-03-23T02:34:49;14.77;;;9.65;;
49948;SDS011;35840;45.982;8.890;2023-03-23T02:39:51;15.23;;;9.18;;
49948;SDS011;35840;45.982;8.890;2023-03-23T02:42:23;18.67;;;10.77;;
49948;SDS011;35840;45.982;8.890;2023-03-23T02:44:54;14.68;;;10.10;;
49948;SDS011;35840;45.982;8.890;2023-03-23T02:47:25;14.35;;;10.18;;
49948;SDS011;35840;45.982;8.890;2023-03-23T02:49:55;12.07;;;8.95;;
49948;SDS011;35840;45.982;8.890;2023-03-23T02:52:30;16.25;;;9.73;;
49948;SDS011;35840;45.982;8.890;2023-03-23T02:54:58;13.65;;;10.10;;
49948;SDS011;35840;45.982;8.890;2023-03-23T02:57:25;13.75;;;9.77;;
49948;SDS011;35840;45.982;8.890;2023-03-23T02:59:55;17.73;;;10.55;;
49948;SDS011;35840;45.982;8.890;2023-03-23T03:07:48;14.88;;;9.48;;
49948;SDS011;35840;45.982;8.890;2023-03-23T03:18:01;19.20;;;9.82;;
49948;SDS011;35840;45.982;8.890;2023-03-23T03:20:33;13.50;;;9.65;;
49948;SDS011;35840;45.982;8.890;2023-03-23T03:23:03;11.40;;;8.50;;
49948;SDS011;35840;45.982;8.890;2023-03-23T03:25:33;13.57;;;10.43;;
49948;SDS011;35840;45.982;8.890;2023-03-23T03:28:00;14.98;;;10.05;;
49948;SDS011;35840;45.982;8.890;2023-03-23T03:30:39;14.65;;;9.73;;
49948;SDS011;35840;45.982;8.890;2023-03-23T03:33:09;14.10;;;9.57;;
49948;SDS011;35840;45.982;8.890;2023-03-23T03:35:37;16.08;;;10.70;;
49948;SDS011;35840;45.982;8.890;2023-03-23T03:38:07;17.52;;;9.48;;
49948;SDS011;35840;45.982;8.890;2023-03-23T03:40:35;11.20;;;9.00;;
49948;SDS011;35840;45.982;8.890;2023-03-23T03:43:00;11.90;;;8.93;;
49948;SDS011;35840;45.982;8.890;2023-03-23T03:45:27;12.20;;;8.85;;
49948;SDS011;35840;45.982;8.890;2023-03-23T03:47:54;13.30;;;9.20;;
49948;SDS011;35840;45.982;8.890;2023-03-23T03:50:21;12.77;;;9.63;;
49948;SDS011;35840;45.982;8.890;2023-03-23T03:52:46;12.13;;;8.73;;
49948;SDS011;35840;45.982;8.890;2023-03-23T03:55:12;15.15;;;10.05;;
49948;SDS011;35840;45.982;8.890;2023-03-23T03:57:41;13.38;;;9.45;;
49948;SDS011;35840;45.982;8.890;2023-03-23T04:00:16;13.43;;;9.77;;
49948;SDS011;35840;45.982;8.890;2023-03-23T04:02:46;15.00;;;9.27;;
49948;SDS011;35840;45.982;8.890;2023-03-23T04:05:19;13.68;;;9.60;;
49948;SDS011;35840;45.982;8.890;2023-03-23T04:07:48;14.60;;;10.60;;
49948;SDS011;35840;45.982;8.890;2023-03-23T04:10:18;15.75;;;10.10;;
49948;SDS011;35840;45.982;8.890;2023-03-23T04:12:48;13.68;;;10.55;;
49948;SDS011;35840;45.982;8.890;2023-03-23T04:15:33;14.85;;;10.95;;
49948;SDS011;35840;45.982;8.890;2023-03-23T04:17:59;18.55;;;11.90;;
49948;SDS011;35840;45.982;8.890;2023-03-23T04:20:26;12.98;;;10.77;;
49948;SDS011;35840;45.982;8.890;2023-03-23T04:22:52;16.58;;;11.10;;
49948;SDS011;35840;45.982;8.890;2023-03-23T04:25:22;18.08;;;10.02;;
49948;SDS011;35840;45.982;8.890;2023-03-23T04:27:51;18.63;;;12.57;;
49948;SDS011;35840;45.982;8.890;2023-03-23T04:30:22;14.23;;;10.93;;
49948;SDS011;35840;45.982;8.890;2023-03-23T04:33:09;18.45;;;11.57;;
49948;SDS011;35840;45.982;8.890;2023-03-23T04:35:40;18.25;;;11.50;;
49948;SDS011;35840;45.982;8.890;2023-03-23T04:38:32;15.98;;;11.43;;
49948;SDS011;35840;45.982;8.890;2023-03-23T04:41:06;16.83;;;11.80;;
49948;SDS011;35840;45.982;8.890;2023-03-23T04:43:41;15.65;;;10.35;;
49948;SDS011;35840;45.982;8.890;2023-03-23T04:46:25;15.10;;;11.82;;
49948;SDS011;35840;45.982;8.890;2023-03-23T04:48:57;19.83;;;11.65;;
49948;SDS011;35840;45.982;8.890;2023-03-23T04:51:32;15.70;;;11.40;;
49948;SDS011;35840;45.982;8.890;2023-03-23T04:54:09;14.98;;;11.05;;
49948;SDS011;35840;45.982;8.890;2023-03-23T04:56:38;16.08;;;11.27;;
49948;SDS011;35840;45.982;8.890;2023-03-23T04:59:09;16.63;;;12.10;;
49948;SDS011;35840;45.982;8.890;2023-03-23T05:01:43;20.10;;;12.43;;
49948;SDS011;35840;45.982;8.890;2023-03-23T05:04:18;15.30;;;10.85;;
49948;SDS011;35840;45.982;8.890;2023-03-23T05:06:58;17.80;;;11.70;;
49948;SDS011;35840;45.982;8.890;2023-03-23T05:09:28;19.58;;;10.90;;
49948;SDS011;35840;45.982;8.890;2023-03-23T05:11:54;14.98;;;11.20;;
49948;SDS011;35840;45.982;8.890;2023-03-23T05:14:20;15.88;;;11.93;;
49948;SDS011;35840;45.982;8.890;2023-03-23T05:16:57;15.20;;;12.23;;
49948;SDS011;35840;45.982;8.890;2023-03-23T05:19:24;15.70;;;11.55;;
49948;SDS011;35840;45.982;8.890;2023-03-23T05:21:51;15.80;;;11.02;;
49948;SDS011;35840;45.982;8.890;2023-03-23T05:24:17;14.50;;;10.80;;
49948;SDS011;35840;45.982;8.890;2023-03-23T05:26:44;16.10;;;12.70;;
49948;SDS011;35840;45.982;8.890;2023-03-23T05:29:17;16.05;;;11.38;;
49948;SDS011;35840;45.982;8.890;2023-03-23T05:31:54;14.77;;;10.85;;
49948;SDS011;35840;45.982;8.890;2023-03-23T05:34:22;16.00;;;11.55;;
49948;SDS011;35840;45.982;8.890;2023-03-23T05:36:54;15.77;;;11.00;;
49948;SDS011;35840;45.982;8.890;2023-03-23T05:39:27;17.17;;;11.88;;
49948;SDS011;35840;45.982;8.890;2023-03-23T05:42:16;15.63;;;11.73;;
49948;SDS011;35840;45.982;8.890;2023-03-23T05:44:48;18.98;;;11.65;;
49948;SDS011;35840;45.982;8.890;2023-03-23T05:47:15;15.57;;;10.80;;
49948;SDS011;35840;45.982;8.890;2023-03-23T05:49:48;15.77;;;11.73;;
49948;SDS011;35840;45.982;8.890;2023-03-23T05:52:17;15.63;;;10.88;;
49948;SDS011;35840;45.982;8.890;2023-03-23T05:54:44;19.65;;;12.02;;
49948;SDS011;35840;45.982;8.890;2023-03-23T05:57:10;18.50;;;11.30;;
49948;SDS011;35840;45.982;8.890;2023-03-23T05:59:43;18.52;;;10.70;;
49948;SDS011;35840;45.982;8.890;2023-03-23T06:02:15;14.60;;;10.85;;
49948;SDS011;35840;45.982;8.890;2023-03-23T06:04:41;13.93;;;11.27;;
49948;SDS011;35840;45.982;8.890;2023-03-23T06:07:16;18.23;;;12.30;;
49948;SDS011;35840;45.982;8.890;2023-03-23T06:09:51;14.57;;;9.82;;
49948;SDS011;35840;45.982;8.890;2023-03-23T06:12:22;18.67;;;10.90;;
49948;SDS011;35840;45.982;8.890;2023-03-23T06:15:12;14.95;;;10.57;;
49948;SDS011;35840;45.982;8.890;2023-03-23T06:18:08;19.92;;;10.98;;
49948;SDS011;35840;45.982;8.890;2023-03-23T06:20:57;17.08;;;10.43;;
49948;SDS011;35840;45.982;8.890;2023-03-23T06:23:41;15.18;;;11.07;;
49948;SDS011;35840;45.982;8.890;2023-03-23T06:26:09;20.17;;;11.50;;
49948;SDS011;35840;45.982;8.890;2023-03-23T06:28:40;15.05;;;11.25;;
49948;SDS011;35840;45.982;8.890;2023-03-23T06:31:06;17.98;;;9.90;;
49948;SDS011;35840;45.982;8.890;2023-03-23T06:33:34;15.52;;;11.35;;
49948;SDS011;35840;45.982;8.890;2023-03-23T06:36:03;16.70;;;10.88;;
49948;SDS011;35840;45.982;8.890;2023-03-23T06:38:52;19.75;;;12.07;;
49948;SDS011;35840;45.982;8.890;2023-03-23T06:41:26;17.13;;;11.82;;
49948;SDS011;35840;45.982;8.890;2023-03-23T06:43:51;21.02;;;12.32;;
49948;SDS011;35840;45.982;8.890;2023-03-23T06:46:23;19.85;;;12.25;;
49948;SDS011;35840;45.982;8.890;2023-03-23T06:49:12;18.90;;;12.80;;
49948;SDS011;35840;45.982;8.890;2023-03-23T06:51:46;18.67;;;12.07;;
49948;SDS011;35840;45.982;8.890;2023-03-23T06:54:12;22.98;;;13.98;;
49948;SDS011;35840;45.982;8.890;2023-03-23T06:56:39;17.73;;;12.45;;
49948;SDS011;35840;45.982;8.890;2023-03-23T06:59:07;21.08;;;13.20;;
49948;SDS011;35840;45.982;8.890;2023-03-23T07:01:33;20.42;;;14.00;;
49948;SDS011;35840;45.982;8.890;2023-03-23T07:04:00;16.88;;;12.80;;
49948;SDS011;35840;45.982;8.890;2023-03-23T07:06:51;19.50;;;13.90;;
49948;SDS011;35840;45.982;8.890;2023-03-23T07:09:17;18.00;;;12.15;;
49948;SDS011;35840;45.982;8.890;2023-03-23T07:11:43;25.17;;;12.75;;
49948;SDS011;35840;45.982;8.890;2023-03-23T07:14:20;20.92;;;11.93;;
49948;SDS011;35840;45.982;8.890;2023-03-23T07:16:48;16.90;;;12.63;;
49948;SDS011;35840;45.982;8.890;2023-03-23T07:19:15;17.17;;;11.90;;
49948;SDS011;35840;45.982;8.890;2023-03-23T07:21:41;18.35;;;12.55;;
49948;SDS011;35840;45.982;8.890;2023-03-23T07:24:10;15.88;;;11.93;;
49948;SDS011;35840;45.982;8.890;2023-03-23T07:26:58;20.65;;;13.50;;
49948;SDS011;35840;45.982;8.890;2023-03-23T07:29:25;18.75;;;13.07;;
49948;SDS011;35840;45.982;8.890;2023-03-23T07:32:00;19.52;;;13.18;;
49948;SDS011;35840;45.982;8.890;2023-03-23T07:34:26;16.60;;;12.70;;
49948;SDS011;35840;45.982;8.890;2023-03-23T07:39:30;23.10;;;13.00;;
49948;SDS011;35840;45.982;8.890;2023-03-23T07:41:59;18.63;;;12.30;;
49948;SDS011;35840;45.982;8.890;2023-03-23T07:44:35;26.05;;;13.88;;
49948;SDS011;35840;45.982;8.890;2023-03-23T07:47:06;22.77;;;13.10;;
49948;SDS011;35840;45.982;8.890;2023-03-23T07:49:33;22.02;;;13.00;;
49948;SDS011;35840;45.982;8.890;2023-03-23T07:52:11;18.83;;;14.07;;
49948;SDS011;35840;45.982;8.890;2023-03-23T07:54:38;20.23;;;13.32;;
49948;SDS011;35840;45.982;8.890;2023-03-23T07:57:17;17.95;;;13.23;;
49948;SDS011;35840;45.982;8.890;2023-03-23T07:59:50;20.52;;;12.68;;
49948;SDS011;35840;45.982;8.890;2023-03-23T08:02:16;19.10;;;13.80;;
49948;SDS011;35840;45.982;8.890;2023-03-23T08:04:47;16.27;;;12.52;;
49948;SDS011;35840;45.982;8.890;2023-03-23T08:07:40;19.77;;;13.70;;
49948;SDS011;35840;45.982;8.890;2023-03-23T08:10:13;16.58;;;12.60;;
49948;SDS011;35840;45.982;8.890;2023-03-23T08:12:51;21.33;;;13.10;;
49948;SDS011;35840;45.982;8.890;2023-03-23T08:15:38;16.70;;;13.32;;
49948;SDS011;35840;45.982;8.890;2023-03-23T08:18:13;20.17;;;13.38;;
49948;SDS011;35840;45.982;8.890;2023-03-23T08:20:42;20.00;;;14.18;;
49948;SDS011;35840;45.982;8.890;2023-03-23T08:23:19;20.45;;;13.30;;
49948;SDS011;35840;45.982;8.890;2023-03-23T08:26:05;24.63;;;15.98;;
49948;SDS011;35840;45.982;8.890;2023-03-23T08:28:52;20.40;;;13.18;;
49948;SDS011;35840;45.982;8.890;2023-03-23T08:31:38;23.38;;;13.95;;
49948;SDS011;35840;45.982;8.890;2023-03-23T08:34:31;19.65;;;13.68;;
49948;SDS011;35840;45.982;8.890;2023-03-23T08:37:22;25.63;;;14.77;;
49948;SDS011;35840;45.982;8.890;2023-03-23T08:40:11;23.17;;;15.32;;
49948;SDS011;35840;45.982;8.890;2023-03-23T08:43:05;28.25;;;14.55;;
49948;SDS011;35840;45.982;8.890;2023-03-23T08:46:00;24.05;;;14.23;;
49948;SDS011;35840;45.982;8.890;2023-03-23T08:48:49;23.15;;;14.18;;
49948;SDS011;35840;45.982;8.890;2023-03-23T08:51:34;23.58;;;13.88;;
49948;SDS011;35840;45.982;8.890;2023-03-23T08:54:11;22.23;;;14.25;;
49948;SDS011;35840;45.982;8.890;2023-03-23T08:57:00;22.63;;;12.30;;
49948;SDS011;35840;45.982;8.890;2023-03-23T08:59:51;20.70;;;13.43;;
49948;SDS011;35840;45.982;8.890;2023-03-23T09:02:38;20.80;;;13.05;;
49948;SDS011;35840;45.982;8.890;2023-03-23T09:05:12;20.80;;;13.57;;
49948;SDS011;35840;45.982;8.890;2023-03-23T09:07:40;26.95;;;12.85;;
49948;SDS011;35840;45.982;8.890;2023-03-23T09:10:13;21.10;;;13.50;;
49948;SDS011;35840;45.982;8.890;2023-03-23T09:12:40;22.05;;;13.07;;
49948;SDS011;35840;45.982;8.890;2023-03-23T09:15:07;21.15;;;13.43;;
49948;SDS011;35840;45.982;8.890;2023-03-23T09:17:38;20.25;;;13.32;;
49948;SDS011;35840;45.982;8.890;2023-03-23T09:20:07;24.70;;;14.82;;
49948;SDS011;35840;45.982;8.890;2023-03-23T09:22:40;22.75;;;14.60;;
49948;SDS011;35840;45.982;8.890;2023-03-23T09:25:09;23.80;;;14.90;;
49948;SDS011;35840;45.982;8.890;2023-03-23T09:27:37;27.73;;;15.65;;
49948;SDS011;35840;45.982;8.890;2023-03-23T09:30:11;25.05;;;14.57;;
49948;SDS011;35840;45.982;8.890;2023-03-23T09:32:39;27.92;;;15.13;;
49948;SDS011;35840;45.982;8.890;2023-03-23T09:35:06;25.75;;;14.32;;
49948;SDS011;35840;45.982;8.890;2023-03-23T09:37:38;24.33;;;15.35;;
49948;SDS011;35840;45.982;8.890;2023-03-23T09:40:06;30.08;;;16.92;;
49948;SDS011;35840;45.982;8.890;2023-03-23T09:42:42;29.88;;;17.85;;
49948;SDS011;35840;45.982;8.890;2023-03-23T09:45:19;28.70;;;16.10;;
49948;SDS011;35840;45.982;8.890;2023-03-23T09:47:59;28.70;;;15.13;;
49948;SDS011;35840;45.982;8.890;2023-03-23T09:50:30;27.15;;;15.77;;
49948;SDS011;35840;45.982;8.890;2023-03-23T09:52:59;25.50;;;16.10;;
49948;SDS011;35840;45.982;8.890;2023-03-23T09:55:26;23.77;;;13.95;;
49948;SDS011;35840;45.982;8.890;2023-03-23T10:00:29;26.45;;;14.70;;
49948;SDS011;35840;45.982;8.890;2023-03-23T10:03:06;28.15;;;15.05;;
49948;SDS011;35840;45.982;8.890;2023-03-23T10:05:47;27.27;;;15.07;;
49948;SDS011;35840;45.982;8.890;2023-03-23T10:08:19;27.08;;;15.82;;
49948;SDS011;35840;45.982;8.890;2023-03-23T10:15:54;26.55;;;15.82;;
49948;SDS011;35840;45.982;8.890;2023-03-23T10:21:02;22.27;;;13.60;;
49948;SDS011;35840;45.982;8.890;2023-03-23T10:34:57;22.63;;;11.05;;
49948;SDS011;35840;45.982;8.890;2023-03-23T10:37:34;24.52;;;10.95;;
49948;SDS011;35840;45.982;8.890;2023-03-23T10:40:12;20.05;;;11.00;;
49948;SDS011;35840;45.982;8.890;2023-03-23T10:42:41;18.83;;;9.65;;
49948;SDS011;35840;45.982;8.890;2023-03-23T10:45:21;22.90;;;10.98;;
49948;SDS011;35840;45.982;8.890;2023-03-23T10:50:41;18.83;;;10.15;;
49948;SDS011;35840;45.982;8.890;2023-03-23T10:53:15;17.65;;;9.93;;
49948;SDS011;35840;45.982;8.890;2023-03-23T10:55:45;19.10;;;9.30;;
49948;SDS011;35840;45.982;8.890;2023-03-23T10:58:21;17.90;;;9.52;;
49948;SDS011;35840;45.982;8.890;2023-03-23T11:00:49;18.92;;;9.43;;
49948;SDS011;35840;45.982;8.890;2023-03-23T11:05:43;18.40;;;8.35;;
49948;SDS011;35840;45.982;8.890;2023-03-23T11:08:12;18.42;;;9.75;;
49948;SDS011;35840;45.982;8.890;2023-03-23T11:10:42;15.98;;;9.35;;
49948;SDS011;35840;45.982;8.890;2023-03-23T11:13:15;17.58;;;9.43;;
49948;SDS011;35840;45.982;8.890;2023-03-23T11:15:43;15.10;;;8.32;;
49948;SDS011;35840;45.982;8.890;2023-03-23T11:18:21;14.98;;;7.65;;
49948;SDS011;35840;45.982;8.890;2023-03-23T11:20:51;16.25;;;9.18;;
49948;SDS011;35840;45.982;8.890;2023-03-23T11:23:22;16.27;;;8.15;;
49948;SDS011;35840;45.982;8.890;2023-03-23T11:25:55;13.95;;;7.78;;
49948;SDS011;35840;45.982;8.890;2023-03-23T11:31:27;16.42;;;8.30;;
49948;SDS011;35840;45.982;8.890;2023-03-23T11:33:57;13.88;;;8.30;;
49948;SDS011;35840;45.982;8.890;2023-03-23T11:37:01;13.88;;;8.45;;
49948;SDS011;35840;45.982;8.890;2023-03-23T11:39:54;13.50;;;7.68;;
49948;SDS011;35840;45.982;8.890;2023-03-23T11:42:34;12.43;;;8.07;;
49948;SDS011;35840;45.982;8.890;2023-03-23T11:50:49;14.75;;;6.80;;
49948;SDS011;35840;45.982;8.890;2023-03-23T11:58:56;13.80;;;7.88;;
49948;SDS011;35840;45.982;8.890;2023-03-23T12:01:39;12.35;;;6.82;;
49948;SDS011;35840;45.982;8.890;2023-03-23T12:07:12;8.93;;;6.32;;
49948;SDS011;35840;45.982;8.890;2023-03-23T12:18:13;9.98;;;6.85;;
49948;SDS011;35840;45.982;8.890;2023-03-23T12:26:25;11.57;;;6.50;;
49948;SDS011;35840;45.982;8.890;2023-03-23T12:29:07;10.15;;;6.47;;
49948;SDS011;35840;45.982;8.890;2023-03-23T12:42:53;9.98;;;7.18;;
49948;SDS011;35840;45.982;8.890;2023-03-23T12:45:25;10.23;;;7.68;;
49948;SDS011;35840;45.982;8.890;2023-03-23T12:55:47;9.43;;;6.82;;
49948;SDS011;35840;45.982;8.890;2023-03-23T12:58:17;13.52;;;7.18;;
49948;SDS011;35840;45.982;8.890;2023-03-23T13:01:00;11.70;;;7.25;;
49948;SDS011;35840;45.982;8.890;2023-03-23T13:03:54;13.00;;;7.82;;
49948;SDS011;35840;45.982;8.890;2023-03-23T13:06:42;10.88;;;7.28;;
49948;SDS011;35840;45.982;8.890;2023-03-23T13:09:13;15.73;;;8.75;;
49948;SDS011;35840;45.982;8.890;2023-03-23T13:11:41;15.70;;;7.82;;
49948;SDS011;35840;45.982;8.890;2023-03-23T13:24:57;13.60;;;8.02;;
49948;SDS011;35840;45.982;8.890;2023-03-23T13:27:27;14.38;;;9.57;;
49948;SDS011;35840;45.982;8.890;2023-03-23T13:29:57;10.18;;;8.30;;
49948;SDS011;35840;45.982;8.890;2023-03-23T13:32:34;14.38;;;8.27;;
49948;SDS011;35840;45.982;8.890;2023-03-23T13:35:03;12.27;;;8.93;;
49948;SDS011;35840;45.982;8.890;2023-03-23T13:37:40;16.77;;;9.38;;
49948;SDS011;35840;45.982;8.890;2023-03-23T13:42:46;17.95;;;9.43;;
49948;SDS011;35840;45.982;8.890;2023-03-23T13:45:21;15.45;;;8.30;;
49948;SDS011;35840;45.982;8.890;2023-03-23T13:50:48;12.90;;;7.83;;
49948;SDS011;35840;45.982;8.890;2023-03-23T13:53:42;22.63;;;9.65;;
49948;SDS011;35840;45.982;8.890;2023-03-23T13:58:45;12.95;;;8.82;;
49948;SDS011;35840;45.982;8.890;2023-03-23T14:01:32;11.68;;;8.00;;
49948;SDS011;35840;45.982;8.890;2023-03-23T14:04:06;12.50;;;7.60;;
49948;SDS011;35840;45.982;8.890;2023-03-23T14:06:38;8.52;;;6.57;;
49948;SDS011;35840;45.982;8.890;2023-03-23T14:09:25;11.13;;;8.05;;
49948;SDS011;35840;45.982;8.890;2023-03-23T14:12:14;9.73;;;7.18;;
49948;SDS011;35840;45.982;8.890;2023-03-23T14:14:46;10.02;;;8.07;;
49948;SDS011;35840;45.982;8.890;2023-03-23T14:17:16;8.18;;;6.43;;
49948;SDS011;35840;45.982;8.890;2023-03-23T14:19:50;10.52;;;6.53;;
49948;SDS011;35840;45.982;8.890;2023-03-23T14:22:25;8.40;;;6.53;;
49948;SDS011;35840;45.982;8.890;2023-03-23T14:25:15;10.00;;;6.47;;
49948;SDS011;35840;45.982;8.890;2023-03-23T14:27:40;10.95;;;6.68;;
49948;SDS011;35840;45.982;8.890;2023-03-23T14:30:08;6.95;;;4.97;;
49948;SDS011;35840;45.982;8.890;2023-03-23T14:32:38;9.48;;;6.07;;
49948;SDS011;35840;45.982;8.890;2023-03-23T14:35:11;9.00;;;5.60;;
49948;SDS011;35840;45.982;8.890;2023-03-23T14:37:42;8.63;;;4.95;;
49948;SDS011;35840;45.982;8.890;2023-03-23T14:40:12;10.18;;;5.95;;
49948;SDS011;35840;45.982;8.890;2023-03-23T14:42:40;7.07;;;6.13;;
49948;SDS011;35840;45.982;8.890;2023-03-23T14:45:11;11.35;;;4.82;;
49948;SDS011;35840;45.982;8.890;2023-03-23T14:47:42;7.22;;;5.30;;
49948;SDS011;35840;45.982;8.890;2023-03-23T14:53:09;6.20;;;4.93;;
49948;SDS011;35840;45.982;8.890;2023-03-23T14:55:48;7.67;;;4.90;;
49948;SDS011;35840;45.982;8.890;2023-03-23T14:58:16;7.10;;;5.18;;
49948;SDS011;35840;45.982;8.890;2023-03-23T15:01:30;9.13;;;5.60;;
49948;SDS011;35840;45.982;8.890;2023-03-23T15:03:35;10.10;;;6.45;;
49948;SDS011;35840;45.982;8.890;2023-03-23T15:06:05;8.30;;;5.70;;
49948;SDS011;35840;45.982;8.890;2023-03-23T15:08:37;6.65;;;5.30;;
49948;SDS011;35840;45.982;8.890;2023-03-23T15:13:53;6.82;;;5.57;;
49948;SDS011;35840;45.982;8.890;2023-03-23T15:16:26;9.75;;;6.15;;
49948;SDS011;35840;45.982;8.890;2023-03-23T15:18:55;7.47;;;5.50;;
49948;SDS011;35840;45.982;8.890;2023-03-23T15:21:30;11.98;;;5.93;;
49948;SDS011;35840;45.982;8.890;2023-03-23T15:23:59;6.53;;;5.65;;
49948;SDS011;35840;45.982;8.890;2023-03-23T15:26:27;9.52;;;6.82;;
49948;SDS011;35840;45.982;8.890;2023-03-23T15:29:00;8.05;;;5.90;;
49948;SDS011;35840;45.982;8.890;2023-03-23T15:31:45;11.40;;;6.38;;
49948;SDS011;35840;45.982;8.890;2023-03-23T15:34:33;9.20;;;6.55;;
49948;SDS011;35840;45.982;8.890;2023-03-23T15:37:05;7.53;;;6.20;;
49948;SDS011;35840;45.982;8.890;2023-03-23T15:39:42;10.48;;;6.55;;
49948;SDS011;35840;45.982;8.890;2023-03-23T15:42:30;11.35;;;6.13;;
49948;SDS011;35840;45.982;8.890;2023-03-23T15:47:36;10.15;;;6.43;;
49948;SDS011;35840;45.982;8.890;2023-03-23T15:50:14;8.90;;;6.03;;
49948;SDS011;35840;45.982;8.890;2023-03-23T15:52:40;7.80;;;5.95;;
49948;SDS011;35840;45.982;8.890;2023-03-23T15:55:23;9.90;;;5.47;;
49948;SDS011;35840;45.982;8.890;2023-03-23T15:57:50;9.38;;;6.70;;
49948;SDS011;35840;45.982;8.890;2023-03-23T16:00:18;8.23;;;6.40;;
49948;SDS011;35840;45.982;8.890;2023-03-23T16:02:49;10.25;;;6.43;;
49948;SDS011;35840;45.982;8.890;2023-03-23T16:05:26;9.25;;;6.40;;
49948;SDS011;35840;45.982;8.890;2023-03-23T16:07:53;9.40;;;6.20;;
49948;SDS011;35840;45.982;8.890;2023-03-23T16:10:21;10.90;;;7.32;;
49948;SDS011;35840;45.982;8.890;2023-03-23T16:12:49;11.63;;;8.32;;
49948;SDS011;35840;45.982;8.890;2023-03-23T16:15:16;9.23;;;6.38;;
49948;SDS011;35840;45.982;8.890;2023-03-23T16:17:43;11.63;;;7.95;;
49948;SDS011;35840;45.982;8.890;2023-03-23T16:20:13;10.05;;;6.60;;
49948;SDS011;35840;45.982;8.890;2023-03-23T16:22:45;9.20;;;7.13;;
49948;SDS011;35840;45.982;8.890;2023-03-23T16:25:13;13.98;;;7.28;;
49948;SDS011;35840;45.982;8.890;2023-03-23T16:27:40;11.27;;;5.90;;
49948;SDS011;35840;45.982;8.890;2023-03-23T16:32:45;13.10;;;6.70;;
49948;SDS011;35840;45.982;8.890;2023-03-23T16:35:13;8.73;;;6.57;;
49948;SDS011;35840;45.982;8.890;2023-03-23T16:37:47;12.25;;;6.65;;
49948;SDS011;35840;45.982;8.890;2023-03-23T16:40:16;10.38;;;6.88;;
49948;SDS011;35840;45.982;8.890;2023-03-23T16:42:44;9.93;;;6.45;;
49948;SDS011;35840;45.982;8.890;2023-03-23T16:45:12;18.27;;;7.32;;
49948;SDS011;35840;45.982;8.890;2023-03-23T16:47:40;12.93;;;6.75;;
49948;SDS011;35840;45.982;8.890;2023-03-23T16:50:08;12.30;;;6.72;;
49948;SDS011;35840;45.982;8.890;2023-03-23T16:52:37;8.35;;;6.65;;
49948;SDS011;35840;45.982;8.890;2023-03-23T16:55:12;9.97;;;7.03;;
49948;SDS011;35840;45.982;8.890;2023-03-23T16:57:40;9.85;;;6.13;;
49948;SDS011;35840;45.982;8.890;2023-03-23T17:00:12;8.25;;;6.53;;
49948;SDS011;35840;45.982;8.890;2023-03-23T17:02:41;9.05;;;6.20;;
49948;SDS011;35840;45.982;8.890;2023-03-23T17:05:09;7.93;;;6.20;;
49948;SDS011;35840;45.982;8.890;2023-03-23T17:07:37;11.60;;;5.97;;
49948;SDS011;35840;45.982;8.890;2023-03-23T17:10:05;11.50;;;6.30;;
49948;SDS011;35840;45.982;8.890;2023-03-23T17:12:33;11.38;;;7.05;;
49948;SDS011;35840;45.982;8.890;2023-03-23T17:15:00;11.43;;;5.80;;
49948;SDS011;35840;45.982;8.890;2023-03-23T17:17:28;9.93;;;6.07;;
49948;SDS011;35840;45.982;8.890;2023-03-23T17:19:55;7.80;;;5.85;;
49948;SDS011;35840;45.982;8.890;2023-03-23T17:22:21;9.82;;;6.10;;
49948;SDS011;35840;45.982;8.890;2023-03-23T17:24:48;8.60;;;5.72;;
49948;SDS011;35840;45.982;8.890;2023-03-23T17:27:17;10.90;;;5.22;;
49948;SDS011;35840;45.982;8.890;2023-03-23T17:29:44;8.85;;;5.55;;